sensor_id;sensor_type;location;lat;lon;timestamp;P1;durP1;ratioP1;P2;durP2;ratioP2
4676;SDS011;2352;48.180;11.478;2024-03-23T00:53:50;5.40;;;3.00;;
4676;SDS011;2352;48.180;11.478;2024-03-23T00:58:51;4.83;;;2.30;;
4676;SDS011;2352;48.180;11.478;2024-03-23T01:03:51;2.40;;;2.17;;
4676;SDS011;2352;48.180;11.478;2024-03-23T01:08:52;2.57;;;2.03;;
4676;SDS011;2352;48.180;11.478;2024-03-23T01:13:53;2.20;;;1.60;;
4676;SDS011;2352;48.180;11.478;2024-03-23T01:18:56;2.10;;;2.00;;
4676;SDS011;2352;48.180;11.478;2024-03-23T01:23:57;2.87;;;2.00;;
4676;SDS011;2352;48.180;11.478;2024-03-23T01:28:57;2.20;;;1.57;;
4676;SDS011;2352;48.180;11.478;2024-03-23T01:33:58;1.77;;;1.30;;
4676;SDS011;2352;48.180;11.478;2024-03-23T01:38:59;1.73;;;1.57;;
4676;SDS011;2352;48.180;11.478;2024-03-23T01:44:00;2.77;;;1.70;;
4676;SDS011;2352;48.180;11.478;2024-03-23T01:49:05;5.40;;;2.20;;
4676;SDS011;2352;48.180;11.478;2024-03-23T01:54:06;4.40;;;2.27;;
4676;SDS011;2352;48.180;11.478;2024-03-23T01:59:08;3.57;;;1.87;;
4676;SDS011;2352;48.180;11.478;2024-03-23T02:04:09;1.53;;;1.43;;
4676;SDS011;2352;48.180;11.478;2024-03-23T02:09:09;2.37;;;2.17;;
4676;SDS011;2352;48.180;11.478;2024-03-23T02:14:10;2.13;;;1.87;;
4676;SDS011;2352;48.180;11.478;2024-03-23T02:19:11;3.00;;;2.40;;
4676;SDS011;2352;48.180;11.478;2024-03-23T02:24:12;3.00;;;2.47;;
4676;SDS011;2352;48.180;11.478;2024-03-23T02:29:13;3.03;;;1.63;;
4676;SDS011;2352;48.180;11.478;2024-03-23T02:34:14;2.17;;;1.73;;
4676;SDS011;2352;48.180;11.478;2024-03-23T02:39:14;1.80;;;1.43;;
4676;SDS011;2352;48.180;11.478;2024-03-23T02:44:15;1.73;;;1.63;;
4676;SDS011;2352;48.180;11.478;2024-03-23T02:49:16;1.90;;;1.80;;
4676;SDS011;2352;48.180;11.478;2024-03-23T02:54:17;2.87;;;1.97;;
4676;SDS011;2352;48.180;11.478;2024-03-23T02:59:17;2.07;;;1.97;;
4676;SDS011;2352;48.180;11.478;2024-03-23T03:04:18;1.97;;;1.67;;
4676;SDS011;2352;48.180;11.478;2024-03-23T03:09:19;1.97;;;1.87;;
4676;SDS011;2352;48.180;11.478;2024-03-23T03:14:20;1.80;;;1.50;;
4676;SDS011;2352;48.180;11.478;2024-03-23T03:19:20;2.00;;;1.80;;
4676;SDS011;2352;48.180;11.478;2024-03-23T03:24:21;1.47;;;1.37;;
4676;SDS011;2352;48.180;11.478;2024-03-23T03:29:22;1.30;;;1.20;;
4676;SDS011;2352;48.180;11.478;2024-03-23T03:34:23;1.97;;;1.50;;
4676;SDS011;2352;48.180;11.478;2024-03-23T03:39:24;1.50;;;1.40;;
4676;SDS011;2352;48.180;11.478;2024-03-23T03:44:25;1.80;;;1.70;;
4676;SDS011;2352;48.180;11.478;2024-03-23T03:49:25;2.30;;;1.33;;
4676;SDS011;2352;48.180;11.478;2024-03-23T03:54:26;4.40;;;1.70;;
4676;SDS011;2352;48.180;11.478;2024-03-23T03:59:27;2.13;;;1.83;;
4676;SDS011;2352;48.180;11.478;2024-03-23T04:04:28;2.67;;;1.90;;
4676;SDS011;2352;48.180;11.478;2024-03-23T04:09:28;2.40;;;2.20;;
4676;SDS011;2352;48.180;11.478;2024-03-23T04:14:30;2.20;;;1.33;;
4676;SDS011;2352;48.180;11.478;2024-03-23T04:19:31;1.70;;;1.60;;
4676;SDS011;2352;48.180;11.478;2024-03-23T04:24:32;1.50;;;1.17;;
4676;SDS011;2352;48.180;11.478;2024-03-23T04:29:32;1.30;;;1.20;;
4676;SDS011;2352;48.180;11.478;2024-03-23T04:34:33;1.47;;;1.33;;
4676;SDS011;2352;48.180;11.478;2024-03-23T04:39:35;2.57;;;1.90;;
4676;SDS011;2352;48.180;11.478;2024-03-23T04:44:39;3.17;;;1.57;;
4676;SDS011;2352;48.180;11.478;2024-03-23T04:49:39;3.47;;;1.80;;
4676;SDS011;2352;48.180;11.478;2024-03-23T04:54:40;1.73;;;1.63;;
4676;SDS011;2352;48.180;11.478;2024-03-23T04:59:41;1.33;;;1.20;;
4676;SDS011;2352;48.180;11.478;2024-03-23T05:04:42;1.50;;;1.40;;
4676;SDS011;2352;48.180;11.478;2024-03-23T05:09:43;3.87;;;1.00;;
4676;SDS011;2352;48.180;11.478;2024-03-23T05:14:44;1.73;;;1.23;;
4676;SDS011;2352;48.180;11.478;2024-03-23T05:19:45;1.70;;;1.60;;
4676;SDS011;2352;48.180;11.478;2024-03-23T05:24:45;1.83;;;1.30;;
4676;SDS011;2352;48.180;11.478;2024-03-23T05:29:47;2.20;;;1.93;;
4676;SDS011;2352;48.180;11.478;2024-03-23T05:34:47;2.10;;;1.27;;
4676;SDS011;2352;48.180;11.478;2024-03-23T05:39:50;1.30;;;1.20;;
4676;SDS011;2352;48.180;11.478;2024-03-23T05:44:51;2.17;;;1.30;;
4676;SDS011;2352;48.180;11.478;2024-03-23T05:49:52;1.37;;;1.03;;
4676;SDS011;2352;48.180;11.478;2024-03-23T05:54:53;1.03;;;1.00;;
4676;SDS011;2352;48.180;11.478;2024-03-23T05:59:54;1.77;;;1.30;;
4676;SDS011;2352;48.180;11.478;2024-03-23T06:04:55;1.43;;;1.33;;
4676;SDS011;2352;48.180;11.478;2024-03-23T06:09:56;1.23;;;1.13;;
4676;SDS011;2352;48.180;11.478;2024-03-23T06:14:57;1.50;;;1.13;;
4676;SDS011;2352;48.180;11.478;2024-03-23T06:19:58;2.13;;;1.00;;
4676;SDS011;2352;48.180;11.478;2024-03-23T06:24:59;2.67;;;1.13;;
4676;SDS011;2352;48.180;11.478;2024-03-23T06:30:00;1.20;;;1.13;;
4676;SDS011;2352;48.180;11.478;2024-03-23T06:35:01;1.77;;;1.10;;
4676;SDS011;2352;48.180;11.478;2024-03-23T06:40:08;2.00;;;0.83;;
4676;SDS011;2352;48.180;11.478;2024-03-23T06:45:10;1.20;;;1.10;;
4676;SDS011;2352;48.180;11.478;2024-03-23T06:50:10;1.13;;;1.03;;
4676;SDS011;2352;48.180;11.478;2024-03-23T06:55:11;0.70;;;0.70;;
4676;SDS011;2352;48.180;11.478;2024-03-23T07:00:12;3.33;;;1.40;;
4676;SDS011;2352;48.180;11.478;2024-03-23T07:05:16;1.30;;;1.20;;
4676;SDS011;2352;48.180;11.478;2024-03-23T07:10:17;1.27;;;0.97;;
4676;SDS011;2352;48.180;11.478;2024-03-23T07:15:18;3.00;;;1.00;;
4676;SDS011;2352;48.180;11.478;2024-03-23T07:20:18;1.43;;;1.33;;
4676;SDS011;2352;48.180;11.478;2024-03-23T07:25:20;1.63;;;1.47;;
4676;SDS011;2352;48.180;11.478;2024-03-23T07:30:21;3.30;;;1.60;;
4676;SDS011;2352;48.180;11.478;2024-03-23T07:35:22;3.17;;;1.50;;
4676;SDS011;2352;48.180;11.478;2024-03-23T07:40:23;1.60;;;1.40;;
4676;SDS011;2352;48.180;11.478;2024-03-23T07:45:24;1.80;;;1.67;;
4676;SDS011;2352;48.180;11.478;2024-03-23T07:50:25;1.47;;;1.37;;
4676;SDS011;2352;48.180;11.478;2024-03-23T07:55:26;1.63;;;1.30;;
4676;SDS011;2352;48.180;11.478;2024-03-23T08:00:26;3.23;;;1.77;;
4676;SDS011;2352;48.180;11.478;2024-03-23T08:05:27;1.57;;;1.40;;
4676;SDS011;2352;48.180;11.478;2024-03-23T08:10:28;2.03;;;1.90;;
4676;SDS011;2352;48.180;11.478;2024-03-23T08:15:32;3.53;;;2.20;;
4676;SDS011;2352;48.180;11.478;2024-03-23T08:20:36;2.10;;;1.90;;
4676;SDS011;2352;48.180;11.478;2024-03-23T08:25:36;1.93;;;1.60;;
4676;SDS011;2352;48.180;11.478;2024-03-23T08:30:37;1.00;;;1.00;;
4676;SDS011;2352;48.180;11.478;2024-03-23T08:35:38;1.47;;;1.37;;
4676;SDS011;2352;48.180;11.478;2024-03-23T08:40:39;1.83;;;1.33;;
4676;SDS011;2352;48.180;11.478;2024-03-23T08:45:40;2.30;;;1.50;;
4676;SDS011;2352;48.180;11.478;2024-03-23T08:50:40;1.40;;;1.30;;
4676;SDS011;2352;48.180;11.478;2024-03-23T08:55:41;1.60;;;1.50;;
4676;SDS011;2352;48.180;11.478;2024-03-23T09:00:42;1.77;;;1.67;;
4676;SDS011;2352;48.180;11.478;2024-03-23T09:05:43;1.50;;;1.40;;
4676;SDS011;2352;48.180;11.478;2024-03-23T09:10:45;2.87;;;1.93;;
4676;SDS011;2352;48.180;11.478;2024-03-23T09:15:50;3.20;;;2.10;;
4676;SDS011;2352;48.180;11.478;2024-03-23T09:20:56;3.23;;;2.63;;
4676;SDS011;2352;48.180;11.478;2024-03-23T09:25:57;3.50;;;3.20;;
4676;SDS011;2352;48.180;11.478;2024-03-23T09:31:04;3.57;;;2.73;;
4676;SDS011;2352;48.180;11.478;2024-03-23T09:36:06;2.60;;;2.40;;
4676;SDS011;2352;48.180;11.478;2024-03-23T09:41:07;2.63;;;2.03;;
4676;SDS011;2352;48.180;11.478;2024-03-23T09:46:09;1.47;;;1.37;;
4676;SDS011;2352;48.180;11.478;2024-03-23T09:51:09;1.23;;;1.13;;
4676;SDS011;2352;48.180;11.478;2024-03-23T09:56:10;1.50;;;1.33;;
4676;SDS011;2352;48.180;11.478;2024-03-23T10:01:11;1.67;;;1.57;;
4676;SDS011;2352;48.180;11.478;2024-03-23T10:06:12;3.20;;;3.00;;
4676;SDS011;2352;48.180;11.478;2024-03-23T10:11:14;0.77;;;0.77;;
4676;SDS011;2352;48.180;11.478;2024-03-23T10:16:22;0.80;;;0.70;;
4676;SDS011;2352;48.180;11.478;2024-03-23T10:21:24;0.77;;;0.77;;
4676;SDS011;2352;48.180;11.478;2024-03-23T10:26:25;0.90;;;0.73;;
4676;SDS011;2352;48.180;11.478;2024-03-23T10:31:26;2.03;;;1.93;;
4676;SDS011;2352;48.180;11.478;2024-03-23T10:36:27;1.40;;;1.30;;
4676;SDS011;2352;48.180;11.478;2024-03-23T10:41:31;0.80;;;0.80;;
4676;SDS011;2352;48.180;11.478;2024-03-23T10:46:32;2.20;;;0.53;;
4676;SDS011;2352;48.180;11.478;2024-03-23T10:51:33;0.87;;;0.50;;
4676;SDS011;2352;48.180;11.478;2024-03-23T10:56:34;1.00;;;0.50;;
4676;SDS011;2352;48.180;11.478;2024-03-23T11:01:53;1.13;;;0.40;;
4676;SDS011;2352;48.180;11.478;2024-03-23T11:06:55;0.60;;;0.50;;
4676;SDS011;2352;48.180;11.478;2024-03-23T11:11:55;0.70;;;0.70;;
4676;SDS011;2352;48.180;11.478;2024-03-23T11:17:08;0.97;;;0.50;;
4676;SDS011;2352;48.180;11.478;2024-03-23T11:22:10;0.60;;;0.57;;
4676;SDS011;2352;48.180;11.478;2024-03-23T11:27:17;2.53;;;0.80;;
4676;SDS011;2352;48.180;11.478;2024-03-23T11:32:17;2.83;;;0.97;;
4676;SDS011;2352;48.180;11.478;2024-03-23T11:37:18;0.93;;;0.93;;
4676;SDS011;2352;48.180;11.478;2024-03-23T11:42:19;2.90;;;1.00;;
4676;SDS011;2352;48.180;11.478;2024-03-23T11:47:22;0.90;;;0.80;;
4676;SDS011;2352;48.180;11.478;2024-03-23T11:52:22;0.97;;;0.87;;
4676;SDS011;2352;48.180;11.478;2024-03-23T11:57:23;3.37;;;1.00;;
4676;SDS011;2352;48.180;11.478;2024-03-23T12:02:24;0.83;;;0.83;;
4676;SDS011;2352;48.180;11.478;2024-03-23T12:07:25;1.10;;;0.90;;
4676;SDS011;2352;48.180;11.478;2024-03-23T12:12:26;3.50;;;1.20;;
4676;SDS011;2352;48.180;11.478;2024-03-23T12:17:26;1.67;;;1.57;;
4676;SDS011;2352;48.180;11.478;2024-03-23T12:22:27;1.60;;;1.33;;
4676;SDS011;2352;48.180;11.478;2024-03-23T12:27:29;3.50;;;1.90;;
4676;SDS011;2352;48.180;11.478;2024-03-23T12:32:30;7.13;;;2.30;;
4676;SDS011;2352;48.180;11.478;2024-03-23T12:37:31;2.10;;;1.90;;
4676;SDS011;2352;48.180;11.478;2024-03-23T12:42:31;2.53;;;1.90;;
4676;SDS011;2352;48.180;11.478;2024-03-23T12:47:32;3.83;;;2.17;;
4676;SDS011;2352;48.180;11.478;2024-03-23T12:52:33;3.37;;;2.47;;
4676;SDS011;2352;48.180;11.478;2024-03-23T12:57:34;3.20;;;1.70;;
4676;SDS011;2352;48.180;11.478;2024-03-23T13:02:35;3.77;;;1.70;;
4676;SDS011;2352;48.180;11.478;2024-03-23T13:07:35;1.90;;;1.43;;
4676;SDS011;2352;48.180;11.478;2024-03-23T13:12:37;9.20;;;2.07;;
4676;SDS011;2352;48.180;11.478;2024-03-23T13:17:38;3.90;;;1.87;;
4676;SDS011;2352;48.180;11.478;2024-03-23T13:22:39;3.00;;;2.47;;
4676;SDS011;2352;48.180;11.478;2024-03-23T13:27:40;3.93;;;2.23;;
4676;SDS011;2352;48.180;11.478;2024-03-23T13:32:41;2.23;;;1.90;;
4676;SDS011;2352;48.180;11.478;2024-03-23T13:37:41;3.07;;;2.37;;
4676;SDS011;2352;48.180;11.478;2024-03-23T13:42:43;2.97;;;2.67;;
4676;SDS011;2352;48.180;11.478;2024-03-23T13:47:44;4.07;;;3.27;;
4676;SDS011;2352;48.180;11.478;2024-03-23T13:52:44;4.13;;;2.60;;
4676;SDS011;2352;48.180;11.478;2024-03-23T13:57:45;3.87;;;3.30;;
4676;SDS011;2352;48.180;11.478;2024-03-23T14:02:46;4.23;;;3.63;;
4676;SDS011;2352;48.180;11.478;2024-03-23T14:07:47;4.77;;;4.00;;
4676;SDS011;2352;48.180;11.478;2024-03-23T14:12:48;2.97;;;2.67;;
4676;SDS011;2352;48.180;11.478;2024-03-23T14:17:50;4.47;;;3.87;;
4676;SDS011;2352;48.180;11.478;2024-03-23T14:22:51;4.83;;;3.60;;
4676;SDS011;2352;48.180;11.478;2024-03-23T14:27:52;4.47;;;2.20;;
4676;SDS011;2352;48.180;11.478;2024-03-23T14:32:53;10.40;;;2.17;;
4676;SDS011;2352;48.180;11.478;2024-03-23T14:37:54;2.63;;;1.97;;
4676;SDS011;2352;48.180;11.478;2024-03-23T14:42:55;2.73;;;1.50;;
4676;SDS011;2352;48.180;11.478;2024-03-23T14:47:55;4.53;;;1.83;;
4676;SDS011;2352;48.180;11.478;2024-03-23T14:52:58;2.57;;;1.20;;
4676;SDS011;2352;48.180;11.478;2024-03-23T14:57:59;3.77;;;2.03;;
4676;SDS011;2352;48.180;11.478;2024-03-23T15:03:00;3.37;;;1.50;;
4676;SDS011;2352;48.180;11.478;2024-03-23T15:08:01;2.73;;;1.67;;
4676;SDS011;2352;48.180;11.478;2024-03-23T15:13:03;1.97;;;1.73;;
4676;SDS011;2352;48.180;11.478;2024-03-23T15:18:04;2.73;;;2.10;;
4676;SDS011;2352;48.180;11.478;2024-03-23T15:23:05;2.77;;;2.20;;
4676;SDS011;2352;48.180;11.478;2024-03-23T15:28:06;3.37;;;2.27;;
4676;SDS011;2352;48.180;11.478;2024-03-23T15:33:07;2.90;;;2.60;;
4676;SDS011;2352;48.180;11.478;2024-03-23T15:38:07;3.03;;;2.40;;
4676;SDS011;2352;48.180;11.478;2024-03-23T15:43:09;2.43;;;1.93;;
4676;SDS011;2352;48.180;11.478;2024-03-23T15:48:10;2.83;;;2.10;;
4676;SDS011;2352;48.180;11.478;2024-03-23T15:53:11;3.07;;;2.50;;
4676;SDS011;2352;48.180;11.478;2024-03-23T15:58:11;3.73;;;2.40;;
4676;SDS011;2352;48.180;11.478;2024-03-23T16:03:12;3.27;;;2.50;;
4676;SDS011;2352;48.180;11.478;2024-03-23T16:08:13;2.97;;;2.60;;
4676;SDS011;2352;48.180;11.478;2024-03-23T16:13:15;3.27;;;2.97;;
4676;SDS011;2352;48.180;11.478;2024-03-23T16:18:16;4.33;;;3.67;;
4676;SDS011;2352;48.180;11.478;2024-03-23T16:23:17;3.30;;;2.67;;
4676;SDS011;2352;48.180;11.478;2024-03-23T16:28:18;3.60;;;2.90;;
4676;SDS011;2352;48.180;11.478;2024-03-23T16:33:18;4.93;;;3.17;;
4676;SDS011;2352;48.180;11.478;2024-03-23T16:38:19;3.10;;;2.60;;
4676;SDS011;2352;48.180;11.478;2024-03-23T16:43:20;5.10;;;3.20;;
4676;SDS011;2352;48.180;11.478;2024-03-23T16:48:21;5.03;;;3.17;;
4676;SDS011;2352;48.180;11.478;2024-03-23T16:53:23;6.40;;;3.53;;
4676;SDS011;2352;48.180;11.478;2024-03-23T16:58:26;3.43;;;2.87;;
4676;SDS011;2352;48.180;11.478;2024-03-23T17:03:31;3.60;;;3.10;;
4676;SDS011;2352;48.180;11.478;2024-03-23T17:08:32;3.60;;;3.20;;
4676;SDS011;2352;48.180;11.478;2024-03-23T17:13:33;3.17;;;2.40;;
4676;SDS011;2352;48.180;11.478;2024-03-23T17:18:34;2.70;;;1.90;;
4676;SDS011;2352;48.180;11.478;2024-03-23T17:23:35;1.97;;;1.50;;
4676;SDS011;2352;48.180;11.478;2024-03-23T17:28:36;2.17;;;1.70;;
4676;SDS011;2352;48.180;11.478;2024-03-23T17:33:37;1.10;;;0.90;;
4676;SDS011;2352;48.180;11.478;2024-03-23T17:38:38;1.00;;;0.90;;
4676;SDS011;2352;48.180;11.478;2024-03-23T17:43:38;1.23;;;0.60;;
4676;SDS011;2352;48.180;11.478;2024-03-23T17:48:39;1.00;;;0.90;;
4676;SDS011;2352;48.180;11.478;2024-03-23T17:53:40;1.73;;;1.17;;
4676;SDS011;2352;48.180;11.478;2024-03-23T17:58:41;1.90;;;1.10;;
4676;SDS011;2352;48.180;11.478;2024-03-23T18:03:42;1.00;;;0.90;;
4676;SDS011;2352;48.180;11.478;2024-03-23T18:08:43;1.37;;;1.13;;
4676;SDS011;2352;48.180;11.478;2024-03-23T18:13:43;2.47;;;1.53;;
4676;SDS011;2352;48.180;11.478;2024-03-23T18:18:45;1.27;;;1.10;;
4676;SDS011;2352;48.180;11.478;2024-03-23T18:23:46;1.90;;;0.47;;
4676;SDS011;2352;48.180;11.478;2024-03-23T18:28:48;2.83;;;1.93;;
4676;SDS011;2352;48.180;11.478;2024-03-23T18:33:52;2.20;;;1.10;;
4676;SDS011;2352;48.180;11.478;2024-03-23T18:38:53;3.43;;;1.57;;
4676;SDS011;2352;48.180;11.478;2024-03-23T18:43:56;2.40;;;1.10;;
4676;SDS011;2352;48.180;11.478;2024-03-23T18:48:57;2.00;;;1.13;;
4676;SDS011;2352;48.180;11.478;2024-03-23T18:54:00;2.40;;;1.40;;
4676;SDS011;2352;48.180;11.478;2024-03-23T18:59:02;2.37;;;1.70;;
4676;SDS011;2352;48.180;11.478;2024-03-23T19:04:02;2.60;;;1.50;;
4676;SDS011;2352;48.180;11.478;2024-03-23T19:09:04;2.03;;;1.70;;
4676;SDS011;2352;48.180;11.478;2024-03-23T19:14:05;1.97;;;1.63;;
4676;SDS011;2352;48.180;11.478;2024-03-23T19:19:05;1.37;;;1.27;;
4676;SDS011;2352;48.180;11.478;2024-03-23T19:24:06;2.10;;;1.80;;
4676;SDS011;2352;48.180;11.478;2024-03-23T19:29:07;1.20;;;1.10;;
4676;SDS011;2352;48.180;11.478;2024-03-23T19:34:08;4.53;;;2.27;;
4676;SDS011;2352;48.180;11.478;2024-03-23T19:39:09;7.07;;;5.80;;
4676;SDS011;2352;48.180;11.478;2024-03-23T19:44:12;2.23;;;2.00;;
4676;SDS011;2352;48.180;11.478;2024-03-23T19:49:13;2.67;;;2.47;;
4676;SDS011;2352;48.180;11.478;2024-03-23T19:54:14;2.43;;;1.80;;
4676;SDS011;2352;48.180;11.478;2024-03-23T19:59:14;2.80;;;2.20;;
4676;SDS011;2352;48.180;11.478;2024-03-23T20:04:15;5.13;;;2.00;;
4676;SDS011;2352;48.180;11.478;2024-03-23T20:09:16;3.67;;;2.97;;
4676;SDS011;2352;48.180;11.478;2024-03-23T20:14:17;3.97;;;3.60;;
4676;SDS011;2352;48.180;11.478;2024-03-23T20:19:17;3.67;;;3.37;;
4676;SDS011;2352;48.180;11.478;2024-03-23T20:24:18;3.93;;;2.80;;
4676;SDS011;2352;48.180;11.478;2024-03-23T20:29:19;2.60;;;2.40;;
4676;SDS011;2352;48.180;11.478;2024-03-23T20:34:20;2.23;;;2.00;;
4676;SDS011;2352;48.180;11.478;2024-03-23T20:39:21;3.37;;;2.67;;
4676;SDS011;2352;48.180;11.478;2024-03-23T20:44:22;1.93;;;1.83;;
4676;SDS011;2352;48.180;11.478;2024-03-23T20:49:23;1.47;;;1.03;;
4676;SDS011;2352;48.180;11.478;2024-03-23T20:54:23;1.37;;;1.27;;
4676;SDS011;2352;48.180;11.478;2024-03-23T20:59:24;1.67;;;1.57;;
4676;SDS011;2352;48.180;11.478;2024-03-23T21:04:25;1.60;;;1.30;;
4676;SDS011;2352;48.180;11.478;2024-03-23T21:09:26;1.67;;;0.90;;
4676;SDS011;2352;48.180;11.478;2024-03-23T21:14:27;1.53;;;1.30;;
4676;SDS011;2352;48.180;11.478;2024-03-23T21:19:27;1.40;;;1.20;;
4676;SDS011;2352;48.180;11.478;2024-03-23T21:24:28;1.53;;;0.80;;
4676;SDS011;2352;48.180;11.478;2024-03-23T21:29:29;2.20;;;1.47;;
4676;SDS011;2352;48.180;11.478;2024-03-23T21:34:30;1.60;;;1.10;;
4676;SDS011;2352;48.180;11.478;2024-03-23T21:39:31;1.07;;;0.97;;
4676;SDS011;2352;48.180;11.478;2024-03-23T21:44:31;1.10;;;1.00;;
4676;SDS011;2352;48.180;11.478;2024-03-23T21:49:32;1.30;;;1.20;;
4676;SDS011;2352;48.180;11.478;2024-03-23T21:54:33;1.33;;;0.97;;
4676;SDS011;2352;48.180;11.478;2024-03-23T21:59:35;3.70;;;0.87;;
4676;SDS011;2352;48.180;11.478;2024-03-23T22:04:36;1.63;;;0.90;;
4676;SDS011;2352;48.180;11.478;2024-03-23T22:09:37;2.03;;;0.93;;
4676;SDS011;2352;48.180;11.478;2024-03-23T22:14:37;0.70;;;0.70;;
4676;SDS011;2352;48.180;11.478;2024-03-23T22:19:38;1.77;;;0.93;;
4676;SDS011;2352;48.180;11.478;2024-03-23T22:24:39;2.30;;;1.23;;
4676;SDS011;2352;48.180;11.478;2024-03-23T22:29:40;0.97;;;0.87;;
4676;SDS011;2352;48.180;11.478;2024-03-23T22:34:41;1.50;;;0.63;;
4676;SDS011;2352;48.180;11.478;2024-03-23T22:39:42;2.10;;;1.10;;
4676;SDS011;2352;48.180;11.478;2024-03-23T22:44:42;1.67;;;0.90;;
4676;SDS011;2352;48.180;11.478;2024-03-23T22:49:43;1.30;;;0.93;;
4676;SDS011;2352;48.180;11.478;2024-03-23T22:54:44;1.10;;;0.83;;
4676;SDS011;2352;48.180;11.478;2024-03-23T22:59:45;0.63;;;0.50;;
4676;SDS011;2352;48.180;11.478;2024-03-23T23:04:46;1.73;;;0.67;;
4676;SDS011;2352;48.180;11.478;2024-03-23T23:09:48;1.20;;;0.80;;
4676;SDS011;2352;48.180;11.478;2024-03-23T23:14:49;3.47;;;0.93;;
4676;SDS011;2352;48.180;11.478;2024-03-23T23:19:50;1.33;;;0.80;;
4676;SDS011;2352;48.180;11.478;2024-03-23T23:24:51;1.03;;;0.70;;
4676;SDS011;2352;48.180;11.478;2024-03-23T23:29:51;1.20;;;0.97;;
4676;SDS011;2352;48.180;11.478;2024-03-23T23:34:52;1.60;;;1.00;;
4676;SDS011;2352;48.180;11.478;2024-03-23T23:39:53;0.63;;;0.60;;
4676;SDS011;2352;48.180;11.478;2024-03-23T23:44:55;0.87;;;0.80;;
4676;SDS011;2352;48.180;11.478;2024-03-23T23:49:56;0.70;;;0.70;;
4676;SDS011;2352;48.180;11.478;2024-03-23T23:54:57;2.67;;;1.07;;
4676;SDS011;2352;48.180;11.478;2024-03-23T23:59:57;0.90;;;0.70;;
